createdAt,value
2022-10-31T08:26:20.879Z,29.48
2022-10-31T08:28:50.839Z,31.60
2022-10-31T08:31:20.283Z,31.13
2022-10-31T08:34:07.367Z,30.75
2022-10-31T08:36:53.526Z,27.80
2022-10-31T08:39:29.501Z,32.50
2022-10-31T08:41:59.696Z,28.27
2022-10-31T08:44:26.656Z,31.13
2022-10-31T08:46:54.209Z,28.20
2022-10-31T08:49:22.882Z,35.22
2022-10-31T08:51:49.956Z,40.28
2022-10-31T08:54:17.357Z,31.38
2022-10-31T08:57:04.540Z,35.22
2022-10-31T08:59:42.114Z,35.10
2022-10-31T09:02:32.262Z,35.42
2022-10-31T09:05:00.974Z,33.63
2022-10-31T09:07:28.445Z,29.80
2022-10-31T09:09:56.844Z,32.75
2022-10-31T09:12:24.946Z,30.55
2022-10-31T09:15:12.136Z,29.05
2022-10-31T09:18:02.198Z,29.98
2022-10-31T09:20:44.647Z,25.20
2022-10-31T09:23:14.748Z,23.30
2022-10-31T09:25:47.585Z,22.83
2022-10-31T09:28:38.123Z,22.50
2022-10-31T09:31:14.110Z,24.67
2022-10-31T09:33:50.546Z,19.08
2022-10-31T09:36:36.773Z,22.67
2022-10-31T09:39:05.034Z,22.83
2022-10-31T09:42:11.661Z,22.30
2022-10-31T09:44:42.045Z,20.38
2022-10-31T09:47:34.466Z,23.30
2022-10-31T09:50:27.248Z,21.42
2022-10-31T09:53:10.938Z,25.65
2022-10-31T09:55:42.242Z,22.85
2022-10-31T09:58:17.427Z,22.08
2022-10-31T10:00:46.018Z,20.90
2022-10-31T10:03:36.884Z,18.73
2022-10-31T10:06:26.254Z,18.45
2022-10-31T10:09:31.263Z,21.58
2022-10-31T10:12:38.840Z,23.48
2022-10-31T10:15:31.089Z,18.30
2022-10-31T10:18:17.343Z,17.83
2022-10-31T10:21:13.740Z,24.80
2022-10-31T10:23:56.461Z,21.75
2022-10-31T10:29:04.207Z,22.58
2022-10-31T10:31:39.888Z,22.25
2022-10-31T10:34:27.834Z,16.42
2022-10-31T10:37:01.436Z,24.38
2022-10-31T10:39:46.428Z,24.50
2022-10-31T10:42:35.912Z,21.10
2022-10-31T10:45:34.394Z,23.15
2022-10-31T10:48:15.276Z,19.23
2022-10-31T10:50:51.036Z,22.80
2022-10-31T10:53:33.640Z,22.42
2022-10-31T10:56:18.071Z,19.25
2022-10-31T10:58:46.360Z,20.92
2022-10-31T11:03:47.063Z,20.25
2022-10-31T11:06:27.059Z,19.13
2022-10-31T11:08:54.681Z,18.25
2022-10-31T11:11:29.109Z,15.68
2022-10-31T11:14:04.356Z,19.25
2022-10-31T11:16:41.557Z,28.70
2022-10-31T11:19:21.919Z,24.05
2022-10-31T11:21:53.715Z,27.15
2022-10-31T11:24:27.407Z,23.67
2022-10-31T11:27:18.187Z,20.20
2022-10-31T11:29:45.333Z,21.23
2022-10-31T11:32:24.942Z,21.15
2022-10-31T11:35:10.892Z,28.90
2022-10-31T11:37:43.858Z,20.85
2022-10-31T11:40:23.087Z,22.38
2022-10-31T11:42:52.004Z,22.83
2022-10-31T11:45:25.191Z,20.98
2022-10-31T11:47:59.619Z,22.10
2022-10-31T11:50:41.426Z,22.80
2022-10-31T11:53:21.284Z,22.98
2022-10-31T11:56:01.227Z,19.88
2022-10-31T11:58:28.423Z,17.80
2022-10-31T12:00:57.461Z,21.67
2022-10-31T12:03:24.335Z,22.20
2022-10-31T12:06:01.563Z,22.33
2022-10-31T12:08:38.331Z,17.98
2022-10-31T12:11:23.757Z,21.73
2022-10-31T12:14:03.886Z,24.13
2022-10-31T12:17:00.254Z,20.63
2022-10-31T12:19:42.095Z,27.13
2022-10-31T12:22:17.730Z,25.27
2022-10-31T12:25:18.209Z,21.63
2022-10-31T12:28:22.125Z,22.90
2022-10-31T12:31:10.361Z,24.10
2022-10-31T12:34:00.020Z,22.70
2022-10-31T12:36:57.289Z,21.33
2022-10-31T12:39:34.729Z,18.60
2022-10-31T12:42:24.346Z,21.98
2022-10-31T12:45:20.438Z,18.10
2022-10-31T12:48:09.849Z,27.27
2022-10-31T12:50:48.523Z,18.02
2022-10-31T12:53:57.643Z,18.08
2022-10-31T12:56:45.477Z,22.00
2022-10-31T12:59:33.887Z,25.98
2022-10-31T13:02:21.442Z,21.48
2022-10-31T13:04:51.690Z,26.27
2022-10-31T13:07:35.664Z,28.10
2022-10-31T13:10:15.975Z,24.13
2022-10-31T13:12:44.763Z,28.88
2022-10-31T13:15:25.345Z,20.92
2022-10-31T13:17:56.878Z,25.30
2022-10-31T13:20:29.593Z,24.02
2022-10-31T13:23:44.674Z,24.25
2022-10-31T13:26:14.891Z,24.52
2022-10-31T13:31:22.518Z,26.17
2022-10-31T13:34:10.152Z,19.60
2022-10-31T13:36:47.137Z,24.63
2022-10-31T13:39:22.950Z,21.35
2022-10-31T13:41:55.455Z,31.77
2022-10-31T13:44:25.082Z,21.42
2022-10-31T13:46:53.800Z,18.52
2022-10-31T13:49:29.800Z,24.17
2022-10-31T13:52:12.187Z,20.80
2022-10-31T13:54:40.821Z,29.73
2022-10-31T13:57:34.069Z,33.05
2022-10-31T14:00:21.016Z,34.28
2022-10-31T14:02:50.882Z,30.70
2022-10-31T14:05:17.816Z,30.67
2022-10-31T14:07:46.036Z,30.33
2022-10-31T14:10:27.082Z,26.92
2022-10-31T14:13:14.492Z,30.05
2022-10-31T14:15:53.155Z,23.73
2022-10-31T14:18:29.966Z,21.60
2022-10-31T14:20:57.065Z,23.52
2022-10-31T14:23:38.600Z,25.73
2022-10-31T14:26:29.698Z,27.90
2022-10-31T14:28:59.309Z,27.23
2022-10-31T14:31:36.681Z,27.08
2022-10-31T14:34:43.193Z,29.38
2022-10-31T14:37:24.574Z,24.48
2022-10-31T14:40:06.419Z,28.83
2022-10-31T14:42:51.158Z,34.05
2022-10-31T14:45:36.518Z,30.40
2022-10-31T14:48:18.321Z,40.03
2022-10-31T14:50:49.059Z,36.40
2022-10-31T14:53:22.653Z,37.97
2022-10-31T14:55:53.387Z,48.08
2022-10-31T14:58:46.879Z,55.88
2022-10-31T15:01:29.682Z,66.13
2022-10-31T15:07:24.927Z,71.03
2022-10-31T15:10:05.525Z,66.65
2022-10-31T15:12:35.064Z,58.38
2022-10-31T15:15:18.982Z,60.58
2022-10-31T15:17:52.977Z,45.28
2022-10-31T15:20:32.205Z,27.08
2022-10-31T15:23:00.717Z,22.83
2022-10-31T15:25:33.184Z,26.10
2022-10-31T15:28:00.380Z,31.08
2022-10-31T15:30:29.948Z,26.73
2022-10-31T15:32:59.149Z,23.02
2022-10-31T15:35:32.493Z,26.88
2022-10-31T15:38:01.690Z,24.45
2022-10-31T15:40:29.302Z,25.25
2022-10-31T15:43:01.459Z,23.33
2022-10-31T15:45:30.844Z,31.75
2022-10-31T15:48:04.144Z,28.08
2022-10-31T15:50:41.537Z,27.42
2022-10-31T15:53:25.493Z,28.52
2022-10-31T15:55:56.626Z,32.92
2022-10-31T15:58:25.185Z,35.58
2022-10-31T16:01:21.094Z,30.90
2022-10-31T16:04:02.063Z,27.92
2022-10-31T16:06:29.195Z,35.67
2022-10-31T16:08:56.327Z,30.13
2022-10-31T16:11:30.466Z,30.15
2022-10-31T16:14:02.624Z,38.08
2022-10-31T16:16:36.166Z,29.55
2022-10-31T16:19:05.953Z,26.40
2022-10-31T16:21:36.559Z,26.60
2022-10-31T16:24:20.049Z,33.03
2022-10-31T16:26:52.475Z,29.48
2022-10-31T16:29:46.119Z,26.70
2022-10-31T16:32:30.031Z,31.02
2022-10-31T16:35:26.478Z,34.40
2022-10-31T16:37:54.047Z,32.53
2022-10-31T16:40:21.767Z,30.85
2022-10-31T16:42:50.084Z,28.55
2022-10-31T16:45:25.030Z,31.85
2022-10-31T16:47:52.438Z,26.85
2022-10-31T16:50:25.114Z,27.67
2022-10-31T16:53:08.758Z,28.92
2022-10-31T16:55:45.411Z,34.40
2022-10-31T16:58:33.968Z,33.33
2022-10-31T17:01:06.753Z,28.65
2022-10-31T17:03:34.064Z,33.22
2022-10-31T17:06:01.269Z,25.83
2022-10-31T17:08:28.297Z,36.60
2022-10-31T17:10:57.152Z,33.53
2022-10-31T17:13:28.505Z,32.53
2022-10-31T17:15:58.443Z,34.80
2022-10-31T17:18:27.603Z,30.77
2022-10-31T17:20:59.918Z,29.50
2022-10-31T17:23:27.683Z,31.98
2022-10-31T17:25:54.949Z,29.15
2022-10-31T17:28:22.224Z,35.05
2022-10-31T17:30:49.378Z,32.70
2022-10-31T17:33:17.065Z,25.90
2022-10-31T17:35:44.992Z,35.00
2022-10-31T17:38:12.626Z,35.20
2022-10-31T17:40:42.262Z,35.25
2022-10-31T17:43:10.417Z,37.45
2022-10-31T17:45:40.410Z,42.88
2022-10-31T17:48:08.235Z,39.67
2022-10-31T17:50:35.312Z,40.72
2022-10-31T17:53:02.560Z,35.95
2022-10-31T17:55:34.440Z,41.95
2022-10-31T17:58:05.284Z,37.10
2022-10-31T18:00:32.653Z,34.53
2022-10-31T18:03:00.079Z,36.50
2022-10-31T18:05:27.322Z,38.35
2022-10-31T18:07:55.176Z,36.53
2022-10-31T18:10:23.503Z,34.50
2022-10-31T18:12:50.383Z,41.78
2022-10-31T18:15:18.218Z,42.80
2022-10-31T18:17:45.734Z,38.22
2022-10-31T18:20:12.745Z,42.67
2022-10-31T18:22:39.723Z,41.03
2022-10-31T18:25:07.107Z,39.17
2022-10-31T18:27:34.001Z,47.95
2022-10-31T18:30:00.875Z,42.10
2022-10-31T18:32:27.814Z,46.22
2022-10-31T18:34:54.877Z,49.17
2022-10-31T18:37:21.771Z,44.13
2022-10-31T18:39:48.678Z,48.90
2022-10-31T18:42:15.810Z,45.97
2022-10-31T18:44:42.679Z,54.50
2022-10-31T18:47:09.638Z,56.22
2022-10-31T18:49:36.800Z,52.97
2022-10-31T18:52:04.784Z,65.55
2022-10-31T18:54:31.742Z,57.25
2022-10-31T18:56:58.612Z,66.40
2022-10-31T18:59:25.570Z,57.67
2022-10-31T19:01:52.537Z,52.90
2022-10-31T19:04:19.674Z,52.00
2022-10-31T19:06:46.791Z,58.45
2022-10-31T19:09:13.853Z,60.83
2022-10-31T19:11:40.951Z,58.17
2022-10-31T19:14:11.121Z,69.78
2022-10-31T19:16:38.217Z,69.60
2022-10-31T19:19:05.348Z,66.43
2022-10-31T19:21:32.616Z,64.13
2022-10-31T19:24:00.401Z,63.67
2022-10-31T19:26:28.315Z,59.58
2022-10-31T19:28:56.876Z,58.60
2022-10-31T19:31:24.703Z,68.50
2022-10-31T19:33:51.749Z,64.28
2022-10-31T19:36:20.258Z,64.68
2022-10-31T19:38:49.617Z,59.03
2022-10-31T19:41:27.344Z,63.70
2022-10-31T19:43:55.081Z,59.53
2022-10-31T19:46:40.520Z,60.05
2022-10-31T19:49:11.506Z,63.00
2022-10-31T19:51:38.506Z,61.17
2022-10-31T19:54:06.221Z,65.47
2022-10-31T19:56:33.280Z,59.35
2022-10-31T19:59:00.210Z,59.03
2022-10-31T20:01:28.023Z,56.50
2022-10-31T20:03:55.174Z,59.53
2022-10-31T20:06:27.986Z,63.47
2022-10-31T20:08:56.242Z,67.40
2022-10-31T20:11:25.137Z,58.90
2022-10-31T20:13:54.275Z,69.50
2022-10-31T20:16:21.332Z,72.13
2022-10-31T20:18:48.589Z,60.03
2022-10-31T20:21:18.542Z,57.17
2022-10-31T20:23:47.080Z,49.92
2022-10-31T20:26:16.767Z,47.97
2022-10-31T20:28:44.331Z,50.33
2022-10-31T20:31:17.193Z,63.53
2022-10-31T20:33:44.674Z,56.58
2022-10-31T20:36:14.594Z,63.05
2022-10-31T20:38:42.397Z,53.10
2022-10-31T20:41:11.447Z,52.95
2022-10-31T20:43:38.730Z,56.75
2022-10-31T20:46:11.212Z,54.67
2022-10-31T20:48:38.938Z,53.00
2022-10-31T20:51:13.809Z,58.28
2022-10-31T20:53:41.299Z,61.28
2022-10-31T20:56:12.579Z,58.30
2022-10-31T20:58:40.862Z,61.88
2022-10-31T21:01:15.187Z,55.88
2022-10-31T21:03:42.417Z,63.28
2022-10-31T21:06:09.996Z,60.90
2022-10-31T21:08:38.044Z,57.20
2022-10-31T21:11:13.366Z,67.00
2022-10-31T21:13:42.094Z,66.30
2022-10-31T21:16:14.574Z,64.18
2022-10-31T21:18:44.464Z,57.80
2022-10-31T21:21:17.841Z,68.38
2022-10-31T21:23:45.491Z,64.53
2022-10-31T21:26:16.120Z,69.28
2022-10-31T21:28:43.753Z,71.38
2022-10-31T21:31:17.368Z,73.25
2022-10-31T21:33:45.394Z,70.82
2022-10-31T21:36:12.788Z,74.63
2022-10-31T21:38:40.227Z,79.72
2022-10-31T21:41:09.809Z,79.55
2022-10-31T21:43:38.763Z,78.65
2022-10-31T21:46:10.526Z,75.75
2022-10-31T21:48:42.310Z,79.13
2022-10-31T21:51:14.458Z,74.32
2022-10-31T21:54:00.492Z,78.07
2022-10-31T21:56:28.392Z,78.43
2022-10-31T21:58:56.140Z,68.30
2022-10-31T22:01:24.998Z,73.50
2022-10-31T22:03:52.223Z,76.80
2022-10-31T22:06:19.313Z,73.07
2022-10-31T22:08:46.901Z,76.72
2022-10-31T22:11:16.261Z,72.95
2022-10-31T22:13:45.585Z,76.72
2022-10-31T22:16:18.287Z,71.07
2022-10-31T22:18:46.261Z,73.32
2022-10-31T22:21:16.070Z,75.72
2022-10-31T22:23:43.661Z,75.50
2022-10-31T22:26:14.939Z,69.85
2022-10-31T22:28:49.646Z,76.38
2022-10-31T22:31:18.658Z,72.85
2022-10-31T22:33:46.458Z,80.93
2022-10-31T22:36:16.859Z,72.18
2022-10-31T22:38:44.728Z,73.72
2022-10-31T22:41:14.545Z,78.93
2022-10-31T22:43:41.988Z,79.50
2022-10-31T22:46:12.366Z,76.97
2022-10-31T22:48:44.698Z,91.40
2022-10-31T22:51:14.508Z,98.55
2022-10-31T22:53:41.821Z,94.25
2022-10-31T22:56:10.865Z,97.78
2022-10-31T22:58:37.925Z,97.75
2022-10-31T23:01:10.151Z,95.60
2022-10-31T23:03:37.652Z,99.88
2022-10-31T23:06:06.351Z,113.13
2022-10-31T23:08:35.893Z,115.10
2022-10-31T23:11:12.497Z,106.75
2022-10-31T23:13:58.221Z,128.95
2022-10-31T23:16:25.454Z,126.95
2022-10-31T23:18:52.453Z,131.82
2022-10-31T23:21:38.223Z,123.97
2022-10-31T23:24:05.386Z,129.02
2022-10-31T23:26:50.664Z,142.07
2022-10-31T23:29:17.579Z,132.60
2022-10-31T23:31:44.646Z,138.18
2022-10-31T23:34:11.622Z,136.73
2022-10-31T23:36:38.490Z,162.50
2022-10-31T23:39:05.356Z,150.35
2022-10-31T23:41:32.317Z,147.02
2022-10-31T23:43:59.243Z,159.70
2022-10-31T23:46:26.082Z,163.80
2022-10-31T23:48:53.566Z,195.32
2022-10-31T23:51:20.561Z,192.15
2022-10-31T23:53:48.195Z,185.63
2022-10-31T23:56:15.621Z,184.73
2022-10-31T23:58:42.732Z,200.07
